Time;durP1;ratioP1;P1;durP2;ratioP2;P2;SDS_P1;SDS_P2;PMS_P1;PMS_P2;Temp;Humidity;BMP_temperature;BMP_pressure;BME280_temperature;BME280_humidity;BME280_pressure;Samples;Min_cycle;Max_cycle;Signal;HPM_P1;HPM_P2
2023/01/06 00:00:35;;;;;;;14.23;6.30;;;;;;;8.59;100.00;101752.53;6177945;23;20001;-89
2023/01/06 00:03:00;;;;;;;16.45;5.82;;;;;;;8.52;100.00;101735.78;6166541;23;20064;-89
2023/01/06 00:05:28;;;;;;;15.30;5.90;;;;;;;8.59;100.00;101752.53;6154143;23;20483;-90
2023/01/06 00:07:53;;;;;;;15.87;5.50;;;;;;;8.57;100.00;101737.78;6153388;23;20101;-90
2023/01/06 00:10:19;;;;;;;15.83;5.63;;;;;;;8.61;100.00;101741.63;6153967;23;20940;-89
2023/01/06 00:12:46;;;;;;;10.45;5.22;;;;;;;8.61;100.00;101737.09;6127314;23;20092;-90
2023/01/06 00:15:12;;;;;;;21.13;6.00;;;;;;;8.50;100.00;101713.81;6154014;23;20422;-89
2023/01/06 00:17:38;;;;;;;13.93;5.40;;;;;;;8.60;100.00;101727.44;6153727;23;20554;-89
2023/01/06 00:20:04;;;;;;;16.08;4.95;;;;;;;8.62;100.00;101728.03;6154819;23;20005;-89
2023/01/06 00:22:29;;;;;;;13.13;5.30;;;;;;;8.59;100.00;101720.47;6155508;23;20009;-89
2023/01/06 00:24:54;;;;;;;12.73;5.00;;;;;;;8.57;100.00;101717.22;6156048;23;20005;-89
2023/01/06 00:27:19;;;;;;;12.60;5.13;;;;;;;8.57;100.00;101706.53;6174224;23;20215;-89
2023/01/06 00:29:47;;;;;;;16.37;4.70;;;;;;;8.65;100.00;101726.81;6179973;23;20008;-89
2023/01/06 00:32:13;;;;;;;14.52;4.78;;;;;;;8.64;100.00;101723.31;6179704;23;20040;-90
2023/01/06 00:34:38;;;;;;;10.77;4.37;;;;;;;8.55;100.00;101705.94;6180527;23;20002;-88
2023/01/06 00:37:03;;;;;;;12.10;4.60;;;;;;;8.66;100.00;101719.59;6170202;23;20091;-89
2023/01/06 00:39:29;;;;;;;10.33;4.27;;;;;;;8.54;100.00;101698.97;6161493;23;20005;-89
2023/01/06 00:42:03;;;;;;;10.87;4.30;;;;;;;8.60;100.00;101711.41;6170508;23;20002;-89
2023/01/06 00:44:34;;;;;;;9.82;3.80;;;;;;;8.53;100.00;101700.00;6171463;23;20000;-89
2023/01/06 00:47:00;;;;;;;8.23;3.55;;;;;;;8.53;100.00;101701.84;6169816;23;20013;-90
2023/01/06 00:49:25;;;;;;;12.18;4.10;;;;;;;8.60;100.00;101708.75;6135880;23;20013;-89
2023/01/06 00:51:51;;;;;;;9.43;3.60;;;;;;;8.57;100.00;101708.38;6157815;23;20033;-89
2023/01/06 00:54:17;;;;;;;6.37;3.33;;;;;;;8.54;100.00;101698.97;6172134;23;20221;-89
2023/01/06 00:56:51;;;;;;;11.70;3.50;;;;;;;8.53;100.00;101700.00;6167893;23;20049;-89
2023/01/06 00:59:19;;;;;;;12.20;3.22;;;;;;;8.41;100.00;101691.88;6176442;23;20000;-90
2023/01/06 01:01:49;;;;;;;6.60;3.03;;;;;;;8.58;100.00;101715.38;6173760;23;20034;-89
2023/01/06 01:04:15;;;;;;;10.37;3.20;;;;;;;8.60;100.00;101722.09;6172682;23;20000;-90
2023/01/06 01:06:50;;;;;;;10.57;3.22;;;;;;;8.62;100.00;101722.72;6165356;23;20009;-89
2023/01/06 01:09:21;;;;;;;8.93;3.10;;;;;;;8.57;100.00;101714.56;6152236;23;20377;-90
2023/01/06 01:14:47;;;;;;;7.00;2.90;;;;;;;8.55;100.00;101699.78;6153196;23;20064;-89
2023/01/06 01:22:25;;;;;;;8.02;2.60;;;;;;;8.40;100.00;101670.75;6191354;22;20096;-89
2023/01/06 01:24:51;;;;;;;6.45;2.25;;;;;;;8.47;100.00;101683.00;6184040;23;20443;-89
2023/01/06 01:40:19;;;;;;;3.83;1.60;;;;;;;8.38;100.00;101659.47;6185494;22;20017;-90
2023/01/06 01:42:46;;;;;;;6.15;1.50;;;;;;;8.44;100.00;101666.56;6183756;23;20035;-88
2023/01/06 01:45:24;;;;;;;7.03;1.90;;;;;;;8.61;100.00;101686.34;6159284;23;20016;-88
2023/01/06 01:47:56;;;;;;;4.13;1.50;;;;;;;8.61;100.00;101689.00;6183113;23;20005;-87
2023/01/06 01:50:36;;;;;;;5.85;1.38;;;;;;;8.62;100.00;101677.28;6158031;23;20066;-89
2023/01/06 01:53:09;;;;;;;7.50;1.58;;;;;;;8.59;100.00;101672.38;6184530;23;20012;-88
2023/01/06 01:55:50;;;;;;;5.55;1.42;;;;;;;8.61;100.00;101670.31;6184840;23;20323;-88
2023/01/06 01:58:20;;;;;;;4.38;1.23;;;;;;;8.62;100.00;101663.13;6184062;23;20009;-89
2023/01/06 02:00:46;;;;;;;6.20;1.40;;;;;;;8.64;100.00;101656.50;6184412;23;20088;-88
2023/01/06 02:03:13;;;;;;;6.75;1.58;;;;;;;8.52;100.00;101636.94;6184269;23;20036;-89
2023/01/06 02:06:09;;;;;;;7.32;1.38;;;;;;;8.68;100.00;101661.41;6183906;23;20088;-89
2023/01/06 02:08:39;;;;;;;4.73;1.20;;;;;;;8.58;100.00;101641.38;6181543;23;20021;-89
2023/01/06 02:11:05;;;;;;;3.40;1.17;;;;;;;8.64;100.00;101645.81;6187901;23;20296;-88
2023/01/06 02:13:33;;;;;;;5.78;1.20;;;;;;;8.69;100.00;101663.84;6203226;23;20032;-89
2023/01/06 02:16:23;;;;;;;4.00;1.27;;;;;;;8.66;100.00;101650.13;6159231;23;20016;-89
2023/01/06 02:19:10;;;;;;;5.20;1.20;;;;;;;8.69;100.00;101658.50;6184453;23;20005;-89
2023/01/06 02:21:54;;;;;;;4.78;1.25;;;;;;;8.69;100.00;101663.84;6184534;23;20422;-89
2023/01/06 02:24:44;;;;;;;3.92;1.40;;;;;;;8.69;100.00;101663.84;6184646;23;20044;-89
2023/01/06 02:27:28;;;;;;;2.83;1.40;;;;;;;8.69;100.00;101661.16;6184764;23;20485;-89
2023/01/06 02:30:53;;;;;;;8.10;1.30;;;;;;;8.73;100.00;101658.88;6191803;23;20463;-89
2023/01/06 02:34:22;;;;;;;;;;;;;;;;;;;;;
2023/01/06 02:40:11;;;;;;;6.13;1.00;;;;;;;8.75;100.00;101632.75;6207510;22;20011;-89
2023/01/06 02:54:20;;;;;;;5.22;0.70;;;;;;;8.63;100.00;101605.97;6187226;22;20024;-88
2023/01/06 03:01:01;;;;;;;3.70;1.02;;;;;;;8.76;100.00;101610.34;6186627;23;20020;-90
2023/01/06 03:03:52;;;;;;;3.33;0.98;;;;;;;8.76;100.00;101605.00;6187129;23;20001;-90
2023/01/06 03:16:32;;;;;;;4.00;0.88;;;;;;;8.78;100.00;101601.03;6204852;23;20079;-89
2023/01/06 03:22:47;;;;;;;2.00;0.70;;;;;;;8.71;100.00;101583.47;6006619;23;20110;-90
2023/01/06 03:26:16;;;;;;;2.53;0.87;;;;;;;8.64;100.00;101568.34;6006809;23;20012;-89
2023/01/06 03:28:52;;;;;;;3.63;1.08;;;;;;;8.51;100.00;101543.66;6156794;22;20021;-89
2023/01/06 03:31:55;;;;;;;2.83;0.98;;;;;;;8.78;100.00;101587.69;6123998;23;20041;-90
2023/01/06 03:35:14;;;;;;;3.00;0.90;;;;;;;8.80;100.00;101595.47;6182834;23;20345;-90
2023/01/06 03:38:10;;;;;;;3.13;0.80;;;;;;;8.81;100.00;101586.41;6063227;23;20038;-89
2023/01/06 03:41:19;;;;;;;3.83;0.70;;;;;;;8.82;100.00;101581.88;6063087;23;20027;-90
2023/01/06 03:44:45;;;;;;;;;;;;;;;;;;;;;
2023/01/06 03:47:26;;;;;;;4.82;0.80;;;;;;;8.79;100.00;101554.56;6084604;22;20112;-89
2023/01/06 03:53:13;;;;;;;2.08;0.60;;;;;;;8.82;100.00;101572.00;6187048;22;20040;-89
2023/01/06 03:56:11;;;;;;;4.28;0.90;;;;;;;8.74;100.00;101556.31;6150490;22;20017;-90
2023/01/06 03:58:38;;;;;;;2.95;0.73;;;;;;;8.75;100.00;101549.91;6161803;23;20009;-90
2023/01/06 04:04:22;;;;;;;;;;;;;;;;;;;;;
2023/01/06 04:06:51;;;;;;;6.28;0.80;;;;;;;8.58;100.00;101523.81;6158812;23;20074;-89
2023/01/06 04:09:52;;;;;;;4.18;0.80;;;;;;;8.57;100.00;101524.06;6154408;23;20005;-88
2023/01/06 04:19:08;;;;;;;11.48;1.33;;;;;;;8.94;100.00;101550.66;6060805;23;20022;-89
2023/01/06 04:22:08;;;;;;;3.57;0.80;;;;;;;8.74;100.00;101516.22;6152935;23;20016;-89
2023/01/06 04:25:03;;;;;;;2.88;0.70;;;;;;;8.86;100.00;101513.56;6152337;23;20036;-89
2023/01/06 04:27:53;;;;;;;6.03;1.02;;;;;;;8.94;100.00;101526.59;6144491;23;20012;-88
2023/01/06 04:30:21;;;;;;;3.85;0.90;;;;;;;8.93;100.00;101535.66;6153085;23;20005;-88
2023/01/06 04:32:56;;;;;;;3.85;1.10;;;;;;;8.95;100.00;101536.25;6153526;23;20456;-88
2023/01/06 04:35:22;;;;;;;2.70;0.60;;;;;;;8.74;100.00;101489.50;6153236;23;20012;-88
2023/01/06 04:40:56;;;;;;;2.08;0.73;;;;;;;8.87;100.00;101491.97;6106681;23;20010;-89
2023/01/06 04:43:25;;;;;;;4.82;1.00;;;;;;;8.77;100.00;101476.50;6153063;23;20005;-89
2023/01/06 04:46:11;;;;;;;4.10;0.70;;;;;;;8.80;100.00;101467.19;6153981;23;20037;-89
2023/01/06 04:55:32;;;;;;;3.28;0.80;;;;;;;8.90;100.00;101493.34;6154438;23;20035;-89
2023/01/06 04:58:23;;;;;;;2.13;0.60;;;;;;;8.80;100.00;101461.84;6126689;23;20013;-89
2023/01/06 05:00:58;;;;;;;4.05;0.68;;;;;;;8.81;100.00;101470.69;6153661;23;20434;-89
2023/01/06 05:03:34;;;;;;;1.75;0.55;;;;;;;8.69;100.00;101454.63;6127350;23;20006;-89
2023/01/06 05:06:30;;;;;;;2.00;0.50;;;;;;;8.82;100.00;101466.97;6153588;23;20504;-89
2023/01/06 05:08:55;;;;;;;1.20;0.52;;;;;;;8.74;100.00;101452.09;6125917;23;20036;-89
2023/01/06 05:11:23;;;;;;;1.60;0.57;;;;;;;8.86;100.00;101463.59;6153939;23;20009;-89
2023/01/06 05:13:54;;;;;;;3.10;0.80;;;;;;;8.92;100.00;101470.72;6128508;23;20009;-88
2023/01/06 05:16:44;;;;;;;;;;;;;;;;;;;;;
2023/01/06 05:19:23;;;;;;;1.77;0.77;;;;;;;8.96;100.00;101473.72;6152991;23;20410;-89
2023/01/06 05:21:57;;;;;;;2.28;0.60;;;;;;;8.76;100.00;101436.66;6154125;23;20016;-88
2023/01/06 05:24:30;;;;;;;2.03;0.60;;;;;;;9.01;100.00;101481.03;6154589;23;20016;-88
2023/01/06 05:29:29;;;;;;;7.50;0.60;;;;;;;8.93;100.00;101469.66;6197891;23;20280;-87
2023/01/06 05:32:02;;;;;;;2.35;0.50;;;;;;;8.93;100.00;101469.66;6208353;23;20001;-87
2023/01/06 05:34:40;;;;;;;4.82;0.80;;;;;;;8.86;100.00;101460.09;6206748;23;20005;-88
2023/01/06 05:37:05;;;;;;;2.25;0.60;;;;;;;8.92;100.00;101464.53;6206312;23;19989;-87
2023/01/06 05:42:17;;;;;;;2.80;0.60;;;;;;;8.92;100.00;101468.03;6187184;23;20013;-88
2023/01/06 05:44:42;;;;;;;1.27;0.60;;;;;;;8.85;100.00;101453.97;6185275;23;20005;-88
2023/01/06 05:47:26;;;;;;;1.27;0.60;;;;;;;8.96;100.00;101467.56;6190146;23;20012;-88
2023/01/06 05:49:51;;;;;;;1.33;0.77;;;;;;;9.12;100.00;101501.66;6185289;23;20012;-88
2023/01/06 05:52:17;;;;;;;1.03;0.60;;;;;;;9.15;100.00;101495.00;6184948;23;20241;-88
2023/01/06 05:54:51;;;;;;;2.50;0.67;;;;;;;9.02;100.00;101471.97;6184289;23;20020;-88
2023/01/06 05:57:16;;;;;;;1.45;0.60;;;;;;;9.05;100.00;101474.19;6184652;23;20001;-88
2023/01/06 05:59:57;;;;;;;1.07;0.50;;;;;;;9.15;100.00;101489.66;6185034;23;20012;-88
2023/01/06 06:02:22;;;;;;;4.47;0.55;;;;;;;8.94;100.00;101460.59;6184609;23;20441;-88
2023/01/06 06:04:53;;;;;;;1.90;0.70;;;;;;;9.06;100.00;101479.31;6184331;23;20005;-88
2023/01/06 06:10:53;;;;;;;1.10;0.50;;;;;;;8.91;100.00;101462.91;6184494;23;20150;-88
2023/01/06 06:13:31;;;;;;;;;;;;;;;;;;;;;
2023/01/06 06:16:14;;;;;;;3.67;0.67;;;;;;;9.17;100.00;101490.25;6183458;23;20080;-88
2023/01/06 06:18:59;;;;;;;5.27;0.73;;;;;;;9.17;100.00;101493.72;6183247;23;20251;-88
2023/01/06 06:21:32;;;;;;;1.38;0.60;;;;;;;9.11;100.00;101478.63;6183093;23;20009;-91
2023/01/06 06:23:58;;;;;;;4.25;0.70;;;;;;;9.05;100.00;101463.50;6184559;23;20005;-89
2023/01/06 06:26:24;;;;;;;1.55;0.77;;;;;;;9.23;100.00;101500.84;6182443;23;20017;-88
2023/01/06 06:28:50;;;;;;;1.20;0.50;;;;;;;9.14;100.00;101488.03;6183444;23;20013;-86
2023/01/06 06:31:19;;;;;;;4.67;0.97;;;;;;;9.07;100.00;101475.59;6184662;23;20076;-90
2023/01/06 06:33:56;;;;;;;1.70;1.00;;;;;;;9.06;100.00;101462.47;6188955;23;20690;-94
2023/01/06 06:36:22;;;;;;;1.95;0.70;;;;;;;9.23;100.00;101498.16;6186046;23;20028;-93
2023/01/06 06:41:54;;;;;;;2.60;0.70;;;;;;;9.16;100.00;101478.72;6191586;23;20031;-93
2023/01/06 06:44:35;;;;;;;;;;;;;;;;;;;;;
2023/01/06 06:47:19;;;;;;;5.28;0.90;;;;;;;9.29;100.00;101487.59;6081753;23;20015;-93
2023/01/06 06:49:47;;;;;;;4.15;0.90;;;;;;;9.26;100.00;101490.72;6200347;23;20009;-92
2023/01/06 06:52:34;;;;;;;2.70;0.88;;;;;;;9.24;100.00;101496.28;6197827;23;20033;-91
2023/01/06 06:54:59;;;;;;;2.38;0.90;;;;;;;9.05;100.00;101474.19;6196171;23;20061;-91
2023/01/06 06:57:25;;;;;;;1.87;0.70;;;;;;;9.19;100.00;101498.88;6196726;23;20009;-93
2023/01/06 07:02:51;;;;;;;3.42;0.90;;;;;;;9.00;100.00;101469.56;6195778;23;20009;-92
2023/01/06 07:05:26;;;;;;;3.03;0.90;;;;;;;9.06;100.00;101481.97;6195929;23;20073;-92
2023/01/06 07:10:55;;;;;;;3.13;1.00;;;;;;;9.13;100.00;101505.94;6151405;23;20005;-92
2023/01/06 07:13:20;;;;;;;2.88;0.90;;;;;;;9.13;100.00;101510.47;6176670;23;20009;-92
2023/01/06 07:16:18;;;;;;;5.90;1.00;;;;;;;8.96;100.00;101489.75;6207079;22;20332;-94
2023/01/06 07:18:56;;;;;;;1.27;0.98;;;;;;;8.96;100.00;101488.94;6153875;23;20094;-94
2023/01/06 07:32:10;;;;;;;;;;;;;;;;;;;;;
2023/01/06 07:34:55;;;;;;;5.15;1.40;;;;;;;8.69;100.00;101465.31;5998408;23;20019;-93
2023/01/06 07:52:52;;;;;;;6.75;1.50;;;;;;;8.74;100.00;101510.88;6189150;22;20025;-95
2023/01/06 07:55:17;;;;;;;1.40;1.27;;;;;;;8.61;100.00;101493.19;6188179;23;20023;-92
2023/01/06 08:17:23;;;;;;;2.60;1.40;;;;;;;9.02;100.00;101561.03;6171836;22;20016;-92
2023/01/06 08:19:48;;;;;;;2.67;1.13;;;;;;;8.99;100.00;101556.13;6201419;23;20095;-91
2023/01/06 08:22:14;;;;;;;2.90;1.53;;;;;;;9.11;100.00;101572.22;6205523;23;20016;-91
2023/01/06 08:24:39;;;;;;;4.87;1.67;;;;;;;9.12;100.00;101568.50;6211383;23;20008;-88
2023/01/06 08:27:05;;;;;;;3.42;1.60;;;;;;;9.14;100.00;101558.34;6210251;23;20024;-94
2023/01/06 08:29:30;;;;;;;1.67;1.43;;;;;;;9.19;100.00;101576.41;6209187;23;20024;-93
2023/01/06 08:38:03;;;;;;;2.07;1.67;;;;;;;9.34;100.00;101586.66;6188367;22;20092;-93
2023/01/06 08:41:27;;;;;;;4.27;1.43;;;;;;;9.32;100.00;101576.19;6187410;23;20013;-93
2023/01/06 08:44:11;;;;;;;1.97;1.50;;;;;;;9.19;100.00;101560.38;6077203;23;20283;-92
2023/01/06 08:49:51;;;;;;;1.90;1.80;;;;;;;9.24;100.00;101574.66;6114231;23;20151;-92
2023/01/06 09:13:56;;;;;;;3.78;2.80;;;;;;;9.36;100.00;101608.63;6095041;23;20018;-92
2023/01/06 09:16:50;;;;;;;3.03;2.38;;;;;;;9.62;100.00;101644.03;6069089;23;20006;-90
2023/01/06 09:19:54;;;;;;;5.97;2.70;;;;;;;9.36;100.00;101611.31;6094211;23;20011;-92
2023/01/06 09:22:19;;;;;;;2.83;2.50;;;;;;;9.50;100.00;101628.75;6061502;23;20447;-93
2023/01/06 09:24:50;;;;;;;8.20;3.10;;;;;;;9.54;100.00;101645.19;6095819;23;20037;-92
2023/01/06 09:27:16;;;;;;;4.53;3.92;;;;;;;9.52;100.00;101637.38;6122195;23;20006;-89
2023/01/06 09:29:41;;;;;;;3.87;2.83;;;;;;;9.59;100.00;101660.56;6154412;23;20014;-88
2023/01/06 09:32:07;;;;;;;3.13;2.45;;;;;;;9.46;100.00;101656.22;6127219;23;20665;-88
2023/01/06 09:34:33;;;;;;;5.05;3.15;;;;;;;9.40;100.00;101671.31;6127072;23;20002;-88
2023/01/06 09:36:58;;;;;;;5.00;3.87;;;;;;;9.43;100.00;101673.56;6128055;23;20060;-89
2023/01/06 09:39:26;;;;;;;3.40;3.10;;;;;;;9.46;100.00;101683.78;6156847;23;19997;-89
2023/01/06 09:42:21;;;;;;;4.68;3.50;;;;;;;9.53;100.00;101670.31;6131856;23;20025;-89
2023/01/06 09:44:52;;;;;;;6.80;3.08;;;;;;;9.63;100.00;101675.91;6155109;23;20010;-88
2023/01/06 09:47:22;;;;;;;6.65;3.05;;;;;;;9.75;100.00;101675.13;6154013;23;20016;-88
2023/01/06 09:49:56;;;;;;;3.67;3.07;;;;;;;9.82;100.00;101678.47;6155028;23;20129;-88
2023/01/06 09:52:32;;;;;;;3.37;3.03;;;;;;;9.82;100.00;101682.00;6128450;23;20327;-88
2023/01/06 09:55:00;;;;;;;4.38;3.20;;;;;;;9.93;100.00;101693.75;6155200;23;20005;-88
2023/01/06 09:57:42;;;;;;;5.80;3.13;;;;;;;10.08;100.00;101700.50;6127481;23;20002;-89
2023/01/06 10:00:29;;;;;;;3.47;2.95;;;;;;;10.21;100.00;101700.25;6154601;23;20006;-89
2023/01/06 10:02:56;;;;;;;3.67;3.20;;;;;;;10.42;100.00;101708.78;6154491;23;20389;-90
2023/01/06 10:05:35;;;;;;;5.23;3.20;;;;;;;10.64;100.00;101714.34;6128958;23;20016;-90
2023/01/06 10:08:21;;;;;;;4.03;3.00;;;;;;;10.65;100.00;101709.81;6152539;23;20252;-88
2023/01/06 10:10:47;;;;;;;4.40;3.22;;;;;;;10.62;100.00;101716.44;6154599;23;20427;-89
2023/01/06 10:13:37;;;;;;;5.27;3.47;;;;;;;10.54;100.00;101708.78;6128253;23;20021;-89
2023/01/06 10:16:34;;;;;;;4.05;3.65;;;;;;;10.29;100.00;101707.97;6154545;23;20033;-89
2023/01/06 10:19:24;;;;;;;4.63;3.78;;;;;;;10.10;100.00;101707.25;6148506;23;20128;-89
2023/01/06 10:22:05;;;;;;;7.55;3.65;;;;;;;10.05;100.00;101696.41;6153339;23;20422;-89
2023/01/06 10:24:40;;;;;;;5.35;3.92;;;;;;;9.97;100.00;101694.09;6154393;23;20006;-89
2023/01/06 10:30:37;;;;;;;5.23;3.10;;;;;;;10.17;100.00;101706.34;6183420;22;20264;-90
2023/01/06 10:33:05;;;;;;;6.57;3.25;;;;;;;10.09;100.00;101697.59;6184193;23;20008;-90
2023/01/06 10:45:03;;;;;;;6.18;2.85;;;;;;;10.07;100.00;101709.59;6157227;23;20020;-89
2023/01/06 10:47:30;;;;;;;6.70;2.90;;;;;;;10.05;100.00;101701.78;6128878;23;20006;-89
2023/01/06 10:49:57;;;;;;;6.63;3.00;;;;;;;9.95;100.00;101702.34;6152862;23;20009;-89
2023/01/06 10:52:24;;;;;;;3.10;2.50;;;;;;;9.95;100.00;101705.03;6154666;23;20011;-89
2023/01/06 10:54:57;;;;;;;4.60;2.90;;;;;;;9.91;100.00;101695.03;6155377;23;19998;-90
2023/01/06 10:57:28;;;;;;;6.80;3.25;;;;;;;9.81;100.00;101690.25;6154158;23;20390;-90
2023/01/06 11:00:07;;;;;;;8.73;3.80;;;;;;;9.87;100.00;101692.00;6128764;23;20016;-89
2023/01/06 11:02:33;;;;;;;5.10;4.10;;;;;;;9.89;100.00;101697.09;6154147;23;20580;-88
2023/01/06 11:05:02;;;;;;;5.13;3.83;;;;;;;9.83;100.00;101693.50;6154324;23;20070;-89
2023/01/06 11:07:29;;;;;;;7.93;4.90;;;;;;;9.84;100.00;101700.50;6155611;23;20006;-90
2023/01/06 11:09:55;;;;;;;5.78;5.15;;;;;;;9.78;100.00;101701.41;6155785;23;20006;-90
2023/01/06 11:12:29;;;;;;;8.55;5.50;;;;;;;9.75;100.00;101705.38;6156381;23;20001;-89
2023/01/06 11:15:00;;;;;;;8.90;5.20;;;;;;;9.72;100.00;101708.50;6159858;23;20005;-90
2023/01/06 11:17:27;;;;;;;8.73;5.85;;;;;;;9.69;100.00;101714.31;6171427;23;20002;-89
2023/01/06 11:20:07;;;;;;;8.43;5.95;;;;;;;9.69;100.00;101714.31;6176431;23;20097;-89
2023/01/06 11:31:12;;;;;;;6.47;5.83;;;;;;;9.65;100.00;101675.69;6150124;22;20031;-88
2023/01/06 11:33:48;;;;;;;12.00;6.80;;;;;;;9.83;100.00;101697.00;6215455;23;20248;-87
2023/01/06 11:36:15;;;;;;;7.65;5.85;;;;;;;9.84;100.00;101698.66;6167438;23;20012;-87
2023/01/06 11:38:48;;;;;;;11.30;5.95;;;;;;;9.86;100.00;101703.75;6158173;23;20024;-87
2023/01/06 11:41:26;;;;;;;7.07;4.57;;;;;;;9.87;100.00;101696.53;6181517;23;20459;-87
2023/01/06 11:43:55;;;;;;;7.65;3.72;;;;;;;9.87;100.00;101694.69;6185007;23;20020;-89
2023/01/06 11:46:24;;;;;;;6.75;3.92;;;;;;;9.90;100.00;101699.56;6183771;23;20019;-88
2023/01/06 11:48:58;;;;;;;7.23;3.10;;;;;;;9.87;100.00;101699.19;6182861;23;20338;-88
2023/01/06 11:51:50;;;;;;;6.77;3.40;;;;;;;9.83;100.00;101694.34;6183909;23;20241;-88
2023/01/06 11:54:24;;;;;;;6.70;2.70;;;;;;;9.81;100.00;101698.28;6154458;23;20156;-88
2023/01/06 11:57:01;;;;;;;4.35;2.08;;;;;;;9.84;100.00;101695.13;6157910;23;20005;-88
2023/01/06 11:59:37;;;;;;;4.50;2.20;;;;;;;9.83;100.00;101674.75;6186138;23;20724;-88
2023/01/06 12:02:03;;;;;;;7.40;2.50;;;;;;;9.88;100.00;101685.59;6194833;23;20021;-89
2023/01/06 12:05:08;;;;;;;5.67;2.30;;;;;;;9.85;100.00;101668.16;6195662;23;20020;-92
2023/01/06 12:07:51;;;;;;;3.20;1.73;;;;;;;9.85;100.00;101665.47;6102061;23;20021;-89
2023/01/06 12:10:52;;;;;;;;;;;;;;;;;;;;;
2023/01/06 12:13:22;;;;;;;6.15;1.90;;;;;;;9.61;100.00;101642.41;6118761;23;20514;-89
2023/01/06 12:18:29;;;;;;;4.68;1.65;;;;;;;9.67;100.00;101658.34;6183137;23;20021;-86
2023/01/06 12:20:57;;;;;;;5.60;1.90;;;;;;;9.76;100.00;101674.88;6156599;23;20001;-88
2023/01/06 12:23:30;;;;;;;5.60;2.10;;;;;;;9.80;100.00;101665.34;6156159;23;20028;-87
2023/01/06 12:28:34;;;;;;;6.78;3.30;;;;;;;9.91;100.00;101673.59;6182373;23;20021;-86
2023/01/06 12:31:15;;;;;;;6.13;3.05;;;;;;;9.94;100.00;101665.94;6157831;23;20012;-87
2023/01/06 12:33:59;;;;;;;8.53;3.10;;;;;;;9.97;100.00;101670.00;6183125;23;20005;-86
2023/01/06 12:36:39;;;;;;;12.67;3.97;;;;;;;9.95;100.00;101659.50;6182746;23;20241;-87
2023/01/06 12:39:11;;;;;;;7.53;4.10;;;;;;;10.02;100.00;101663.94;6182823;23;20032;-87
2023/01/06 12:41:43;;;;;;;9.00;5.00;;;;;;;9.90;100.00;101629.97;6183082;23;20031;-87
2023/01/06 12:44:22;;;;;;;11.35;4.22;;;;;;;9.98;100.00;101650.22;6183359;23;20011;-87
2023/01/06 12:47:24;;;;;;;7.35;4.70;;;;;;;10.07;100.00;101654.16;6183292;23;20016;-87
2023/01/06 12:49:54;;;;;;;9.70;5.20;;;;;;;10.15;100.00;101664.53;6183502;23;20334;-88
2023/01/06 12:52:44;;;;;;;10.00;4.67;;;;;;;10.18;100.00;101667.78;6184107;23;20001;-88
2023/01/06 12:55:23;;;;;;;9.27;4.87;;;;;;;10.04;100.00;101645.78;6183481;23;20564;-88
2023/01/06 12:57:57;;;;;;;9.40;4.57;;;;;;;10.05;100.00;101652.78;6181761;23;20001;-88
2023/01/06 13:07:44;;;;;;;11.40;4.68;;;;;;;10.15;100.00;101667.19;6152715;22;20025;-87
2023/01/06 13:10:19;;;;;;;10.10;4.03;;;;;;;10.13;100.00;101671.19;6156615;23;20036;-87
2023/01/06 13:12:44;;;;;;;8.80;4.70;;;;;;;10.11;100.00;101678.63;6183006;23;20612;-87
2023/01/06 13:15:29;;;;;;;7.53;4.55;;;;;;;10.09;100.00;101675.38;6183214;23;20060;-89
2023/01/06 13:18:09;;;;;;;12.10;3.53;;;;;;;10.07;100.00;101670.22;6182341;23;20017;-88
2023/01/06 13:20:59;;;;;;;8.05;3.30;;;;;;;9.93;100.00;101664.31;6183228;23;20516;-88
2023/01/06 13:23:54;;;;;;;4.88;2.70;;;;;;;9.93;100.00;101679.53;6183156;23;20076;-88
2023/01/06 13:26:42;;;;;;;8.95;2.55;;;;;;;9.91;100.00;101679.78;6182605;23;20006;-88
2023/01/06 13:29:22;;;;;;;4.32;2.20;;;;;;;9.90;100.00;101669.28;6182290;23;20016;-89
2023/01/06 13:32:15;;;;;;;4.87;1.80;;;;;;;10.02;100.00;101680.84;6183716;23;20008;-89
2023/01/06 13:34:40;;;;;;;4.50;1.90;;;;;;;10.08;100.00;101668.38;6184482;23;20240;-88
2023/01/06 13:37:28;;;;;;;5.47;1.63;;;;;;;10.10;100.00;101669.75;6184235;23;20009;-89
2023/01/06 13:39:59;;;;;;;4.60;1.27;;;;;;;10.02;100.00;101670.13;6159015;23;20020;-89
2023/01/06 13:42:59;;;;;;;5.03;1.40;;;;;;;10.08;100.00;101663.81;6185808;23;20042;-88
2023/01/06 13:45:29;;;;;;;3.33;1.45;;;;;;;10.12;100.00;101661.50;6158424;23;20103;-89
2023/01/06 13:47:57;;;;;;;3.60;1.30;;;;;;;10.11;100.00;101655.31;6185199;23;20024;-89
2023/01/06 13:50:22;;;;;;;4.63;1.20;;;;;;;10.05;100.00;101647.41;6158824;23;20631;-88
2023/01/06 13:53:03;;;;;;;;;;;;;;;;;;;;;
2023/01/06 13:55:35;;;;;;;4.15;1.42;;;;;;;10.05;100.00;101629.47;6162823;23;20088;-89
2023/01/06 13:58:23;;;;;;;3.83;1.17;;;;;;;10.37;100.00;101642.50;6188246;23;20013;-89
2023/01/06 14:01:29;;;;;;;7.70;1.40;;;;;;;10.54;100.00;101649.81;6160743;23;20005;-88
2023/01/06 14:04:26;;;;;;;3.78;1.40;;;;;;;10.69;100.00;101660.00;6191270;23;20001;-88
2023/01/06 14:06:52;;;;;;;4.70;1.30;;;;;;;10.75;100.00;101657.22;6202564;23;20009;-89
2023/01/06 14:09:19;;;;;;;2.70;1.33;;;;;;;10.85;100.00;101666.50;6197764;23;20012;-89
2023/01/06 14:11:44;;;;;;;10.57;1.20;;;;;;;10.70;100.00;101638.34;6181491;23;20024;-89
2023/01/06 14:14:23;;;;;;;6.20;1.73;;;;;;;10.83;100.00;101663.22;6213620;22;20015;-89
2023/01/06 14:16:52;;;;;;;7.80;1.38;;;;;;;10.81;100.00;101651.94;6186655;23;19989;-89
2023/01/06 14:19:21;;;;;;;5.10;1.42;;;;;;;10.81;100.00;101654.59;6209288;22;20009;-89
2023/01/06 14:21:49;;;;;;;5.67;1.67;;;;;;;10.76;100.00;101644.63;6209929;23;19997;-89
2023/01/06 14:24:24;;;;;;;5.88;1.90;;;;;;;10.85;100.00;101661.13;6210046;23;20009;-90
2023/01/06 14:27:01;;;;;;;5.22;1.80;;;;;;;10.82;100.00;101651.72;6194272;23;19996;-89
2023/01/06 14:30:04;;;;;;;3.25;1.50;;;;;;;10.80;100.00;101652.97;6190183;23;20016;-88
2023/01/06 14:32:29;;;;;;;4.22;1.88;;;;;;;10.78;100.00;101647.03;6198759;23;20001;-89
2023/01/06 14:35:09;;;;;;;4.60;1.80;;;;;;;10.77;100.00;101640.88;6197752;23;20057;-89
2023/01/06 14:37:46;;;;;;;5.10;2.05;;;;;;;10.68;100.00;101629.72;6192922;23;20032;-89
2023/01/06 14:40:51;;;;;;;3.40;1.90;;;;;;;10.64;100.00;101639.28;6188867;23;20007;-89
2023/01/06 14:43:36;;;;;;;4.13;1.73;;;;;;;10.52;100.00;101638.53;6191320;23;20005;-88
2023/01/06 14:53:56;;;;;;;3.83;1.97;;;;;;;10.11;100.00;101628.53;6179223;22;20538;-89
2023/01/06 14:56:24;;;;;;;8.77;2.40;;;;;;;10.17;100.00;101653.56;6190574;23;20315;-89
2023/01/06 14:58:49;;;;;;;4.18;2.03;;;;;;;9.95;100.00;101618.56;6186446;23;20012;-89
2023/01/06 15:01:27;;;;;;;4.03;1.80;;;;;;;10.07;100.00;101635.41;6187926;23;20001;-89
2023/01/06 15:07:18;;;;;;;2.70;1.88;;;;;;;10.01;100.00;101655.09;6187493;22;20016;-89
2023/01/06 15:09:45;;;;;;;3.90;1.60;;;;;;;9.78;100.00;101627.28;6188586;23;20119;-88
2023/01/06 15:12:34;;;;;;;2.65;1.90;;;;;;;9.77;100.00;101620.31;6196362;22;20049;-89
2023/01/06 15:15:20;;;;;;;2.00;1.80;;;;;;;9.66;100.00;101626.47;6206225;22;20005;-90
2023/01/06 15:17:46;;;;;;;4.35;1.48;;;;;;;9.54;100.00;101637.97;6183588;22;20013;-89
2023/01/06 15:20:13;;;;;;;3.20;1.60;;;;;;;9.38;100.00;101625.25;6210136;23;20016;-88
2023/01/06 15:22:39;;;;;;;10.35;1.65;;;;;;;9.37;100.00;101627.13;6210358;22;19993;-89
2023/01/06 15:25:06;;;;;;;1.42;1.30;;;;;;;9.25;100.00;101628.94;6209665;22;20069;-90
2023/01/06 15:27:32;;;;;;;2.65;1.48;;;;;;;9.18;100.00;101625.59;6185395;23;20005;-90
2023/01/06 15:29:58;;;;;;;4.35;1.80;;;;;;;9.09;100.00;101627.78;6185750;23;20012;-89
2023/01/06 15:32:25;;;;;;;2.30;1.77;;;;;;;8.91;100.00;101623.28;6186056;23;20005;-89
2023/01/06 15:34:55;;;;;;;3.35;1.80;;;;;;;8.99;100.00;101635.50;6186066;23;20001;-89
2023/01/06 15:37:26;;;;;;;2.30;2.00;;;;;;;8.92;100.00;101636.44;6158701;23;20013;-89
2023/01/06 15:39:52;;;;;;;2.75;1.95;;;;;;;8.91;100.00;101639.31;6159256;23;20009;-89
2023/01/06 15:42:22;;;;;;;3.63;2.17;;;;;;;8.88;100.00;101637.91;6187017;23;20302;-90
2023/01/06 15:45:01;;;;;;;2.30;1.90;;;;;;;8.99;100.00;101641.69;6187034;23;20486;-89
2023/01/06 15:47:33;;;;;;;3.78;2.35;;;;;;;9.06;100.00;101641.59;6186685;23;20377;-89
2023/01/06 15:50:01;;;;;;;2.47;2.17;;;;;;;9.07;100.00;101645.91;6192542;23;20001;-89